Yoder, Colorado
Current Conditions -  °F | °C
As of 1:56 AM on Friday 31 Oct 2014 (Local Time) from KABH Reporting Station
Clear Clear  
Wind Chill: 32°   Ceiling: Unl
Heat Index: 39°   Visibility: 10mi
Dew Point: 24°   Wind: 10mph
Humidity: 55%   Direction: 150°SSE
Pressure: 30.43"   Gusts: NA
Location:  38.84°N, 104.22°W
Report Text: KABH 310756Z AUTO 15009KT 10SM CLR 04/M04 A3043 RMK AO2 SLP289 T00391044 $
Loading
Personal Weather Stations






























Interactive Weather Map
Tropical Storm Tracking
New forecast layout! Learn more

10-Day Weather Forecast

Advertisements
Track Severe Weather on mobile